EA4TN Vaciamadrid ES current weather conditions

sailwx.info

Air temperature 1.1° C
Dewpoint -1.6° C

Last reported at 2017-Dec-18 04:00 UTC.
Time now 2017-Dec-18 05:06 UTC

Location: N 40°21' W 003°31'.
View on Google Maps.

See reports from other nearby stations

  
Tides and Currents Weather Stations Pressure Air Temp Water Temp Dewpoint Dewpoint Depression Visibility Wind Speed Wind Dir Waves Ship Positions
date/time (UTC)wind fromknots sea level pressurealtimeterstation pressurevisibilityair tempwater tempwave heightnotes
2017-Dec-18 04:00 1.1
2017-Dec-18 03:50 083 1.1
2017-Dec-18 03:40 088 0 gusting 2 1.1
2017-Dec-18 03:30 062 0 gusting 3 1.1
2017-Dec-18 03:20 063 1 gusting 5 1.1
2017-Dec-18 03:10 044 3 gusting 6 1.1
2017-Dec-18 03:00 065 2 gusting 5 1.7
2017-Dec-18 02:50 045 2 gusting 6 1.7
2017-Dec-18 02:40 076 1 gusting 5 1.7
2017-Dec-18 02:30 058 2 gusting 7 1.7
2017-Dec-18 02:20 043 2 gusting 6 1.7
2017-Dec-18 02:10 041 2 gusting 6 2.2
2017-Dec-18 02:00 042 3 gusting 6 1.7
2017-Dec-18 01:50 046 3 gusting 6 1.7
2017-Dec-18 01:40 055 2 gusting 4 1.7
2017-Dec-18 01:30 067 1 gusting 6 1.7
2017-Dec-18 01:20 047 3 gusting 6 1.7
2017-Dec-18 01:10 058 2 gusting 6 1.7
2017-Dec-18 01:00 075 1 gusting 4 1.7
2017-Dec-18 00:50 054 2 gusting 5 1.7
2017-Dec-18 00:40 052 2 gusting 6 1.7
2017-Dec-18 00:30 044 2 gusting 5 1.7
2017-Dec-18 00:20 063 1 gusting 5 1.7
2017-Dec-18 00:10 062 0 gusting 4 2.2
2017-Dec-18 00:00 065 1 gusting 4 1.7
2017-Dec-17 23:50 044 2.2
2017-Dec-17 23:40 033 2.2
2017-Dec-17 23:30 018 2.8
2017-Dec-17 23:20 069 1 gusting 3 2.8
2017-Dec-17 23:10 053 1 gusting 3 2.8
2017-Dec-17 23:00 063 0 gusting 2 2.8
2017-Dec-17 22:50 078 2.8
2017-Dec-17 22:40 053 0 gusting 3 2.8
2017-Dec-17 22:30 071 0 gusting 4 2.8
2017-Dec-17 22:20 058 0 gusting 3 3.3
2017-Dec-17 22:10 055 0 gusting 3 3.3
2017-Dec-17 22:00 052 0 gusting 3 3.3
2017-Dec-17 21:50 056 0 gusting 2 3.3
2017-Dec-17 21:40 042 0 gusting 3 3.9
2017-Dec-17 21:30 060 1 gusting 2 3.9
2017-Dec-17 21:20 052 3.3
2017-Dec-17 21:10 056 0 gusting 2 3.3
2017-Dec-17 21:00 059 0 gusting 2 3.3
2017-Dec-17 20:50 070 0 gusting 2 3.3
2017-Dec-17 20:40 069 0 gusting 1 3.9
2017-Dec-17 20:30 061 3.9
2017-Dec-17 20:20 053 0 gusting 2 3.9
2017-Dec-17 20:10 025 3.9
2017-Dec-17 20:00 020 0 gusting 3 3.9
2017-Dec-17 19:50 034 0 gusting 2 3.9
2017-Dec-17 19:40 023 0 gusting 3 3.9
2017-Dec-17 19:30 022 0 gusting 3 4.4
2017-Dec-17 19:20 021 0 gusting 3 4.4
2017-Dec-17 19:10 041 0 gusting 2 4.4
2017-Dec-17 19:00 053 0 gusting 4 4.4
2017-Dec-17 18:50 037 1 gusting 4 5.0
2017-Dec-17 18:40 022 0 gusting 2 5.0
2017-Dec-17 18:30 033 0 gusting 2 5.6
2017-Dec-17 18:20 029 1 gusting 4 5.6
2017-Dec-17 18:10 022 0 gusting 4 6.1
2017-Dec-17 18:00 010 1 gusting 3 6.1
2017-Dec-17 17:50 025 1 gusting 4 6.1
2017-Dec-17 17:40 024 2 gusting 6 6.7
2017-Dec-17 17:30 019 0 gusting 3 6.7
2017-Dec-17 17:20 036 1 gusting 4 6.7
2017-Dec-17 17:10 002 0 gusting 1 7.2
2017-Dec-17 17:00 001 7.8
2017-Dec-17 16:50 069 0 gusting 4 8.3
2017-Dec-17 16:40 045 8.3
2017-Dec-17 16:30 051 1 gusting 6 8.9
2017-Dec-17 16:20 064 2 gusting 6 8.9
2017-Dec-17 16:10 054 3 gusting 10 8.9
2017-Dec-17 16:00 057 4 gusting 9 9.4
2017-Dec-17 15:50 056 3 gusting 9 9.4
2017-Dec-17 15:40 056 6 gusting 13 9.4
2017-Dec-17 15:30 060 6 gusting 14 10.0
2017-Dec-17 15:20 065 6 gusting 11 10.0
2017-Dec-17 15:10 058 4 gusting 10 10.0
2017-Dec-17 15:00 056 6 gusting 13 10.0
2017-Dec-17 14:50 047 3 gusting 12 10.0
2017-Dec-17 14:40 045 5 gusting 11 10.0
2017-Dec-17 14:30 052 3 gusting 8 10.0
2017-Dec-17 14:20 057 2 gusting 7 9.4
2017-Dec-17 14:10 050 3 gusting 8 9.4
2017-Dec-17 14:00 028 4 gusting 7 9.4
2017-Dec-17 13:50 044 4 gusting 13 9.4
2017-Dec-17 13:40 031 3 gusting 9 9.4
2017-Dec-17 13:30 026 4 gusting 10 8.9
2017-Dec-17 13:20 032 5 gusting 10 8.9
2017-Dec-17 13:10 037 4 gusting 9 8.9
2017-Dec-17 13:00 037 3 gusting 9 8.3
2017-Dec-17 12:50 021 3 gusting 8 8.3
2017-Dec-17 12:40 011 2 gusting 9 7.8
2017-Dec-17 12:30 062 5 gusting 9 7.8
2017-Dec-17 12:20 041 5 gusting 12 7.8
2017-Dec-17 12:10 049 2 gusting 6 7.2
2017-Dec-17 12:00 043 2 gusting 6 6.7
2017-Dec-17 11:50 046 2 gusting 6 6.1
2017-Dec-17 11:40 065 2 gusting 6 6.1
2017-Dec-17 11:30 048 2 gusting 5 5.6
2017-Dec-17 11:20 055 2 gusting 6 5.0
2017-Dec-17 11:10 059 3 gusting 8 5.0
2017-Dec-17 11:00 061 2 gusting 6 4.4
2017-Dec-17 10:50 044 2 gusting 5 3.9
2017-Dec-17 10:40 059 2 gusting 6 3.3
2017-Dec-17 10:30 054 3 gusting 10 3.3
2017-Dec-17 10:20 039 2 gusting 7 3.3
2017-Dec-17 10:10 040 3 gusting 7 2.8
2017-Dec-17 10:00 046 2 gusting 6 2.8
2017-Dec-17 09:50 055 2 gusting 6 2.2
2017-Dec-17 09:40 042 3 gusting 6 2.2
2017-Dec-17 09:30 042 1 gusting 6 1.7
2017-Dec-17 09:20 049 2 gusting 6 1.1
2017-Dec-17 09:10 047 2 gusting 5 0.6
2017-Dec-17 09:00 063 2 gusting 6 0.6
2017-Dec-17 08:50 050 2 gusting 5 0.6
2017-Dec-17 08:40 056 1 gusting 3 1.1
2017-Dec-17 08:30 062 0 gusting 2 0.6
2017-Dec-17 08:20 075 0 gusting 2 0.6
2017-Dec-17 08:10 052 -0.0
2017-Dec-17 08:00 -0.0
2017-Dec-17 07:50 056 -0.0
2017-Dec-17 07:40 -0.0
2017-Dec-17 07:30 075 0 gusting 2 -0.0
2017-Dec-17 07:20 077 0 gusting 2 -0.0
2017-Dec-17 07:10 079 0 gusting 3 -0.0
2017-Dec-17 07:00 072 1 gusting 4 -0.6
2017-Dec-17 06:50 064 0 gusting 2 -0.6
2017-Dec-17 06:40 055 1 gusting 2 -0.6
2017-Dec-17 06:30 059 1 gusting 3 -0.6
2017-Dec-17 06:20 058 1 gusting 4 -0.6
2017-Dec-17 06:10 073 1 gusting 6 -0.6
2017-Dec-17 06:00 059 3 gusting 5 -0.6
2017-Dec-17 05:50 052 3 gusting 6 -0.0
2017-Dec-17 05:40 073 1 gusting 4 -0.0
2017-Dec-17 05:30 058 1 gusting 5 -0.0
2017-Dec-17 05:20 053 1 gusting 4 -0.0
2017-Dec-17 05:10 052 1 gusting 3 0.6
2017-Dec-17 05:00 066 1 gusting 4 0.6
2017-Dec-17 04:50 067 1 gusting 3 0.6
2017-Dec-17 04:40 056 0 gusting 1 0.6
2017-Dec-17 04:30 057 0 gusting 1 0.6
2017-Dec-17 04:20 030 0.6
2017-Dec-17 04:10 066 1.1
2017-Dec-17 04:00 060 2 gusting 5 1.1
2017-Dec-17 03:50 048 0 gusting 1 0.6
2017-Dec-17 03:40 052 0 gusting 2 1.1
2017-Dec-17 03:30 046 1 gusting 3 1.1
2017-Dec-17 03:20 051 1 gusting 2 1.1
2017-Dec-17 03:10 022 0 gusting 2 1.1
2017-Dec-17 03:00 045 1.1
2017-Dec-17 02:50 061 1 gusting 4 1.1
2017-Dec-17 02:40 053 0 gusting 3 1.1
2017-Dec-17 02:30 028 0 gusting 3 1.7
2017-Dec-17 02:20 029 0 gusting 2 1.7
2017-Dec-17 02:10 040 1 gusting 6 2.2
2017-Dec-17 02:00 023 1 gusting 5 2.2
2017-Dec-17 01:50 023 2 gusting 5 2.2
2017-Dec-17 01:40 030 2 gusting 6 2.2
2017-Dec-17 01:30 036 2 gusting 6 2.2
2017-Dec-17 01:20 020 2 gusting 6 2.2
2017-Dec-17 01:10 025 1 gusting 4 2.2
2017-Dec-17 01:00 042 0 gusting 3 2.2
2017-Dec-17 00:50 052 0 gusting 2 2.2
2017-Dec-17 00:40 033 0 gusting 2 2.8
2017-Dec-17 00:30 097 0 gusting 2 3.3
2017-Dec-17 00:20 046 0 gusting 6 3.3
2017-Dec-17 00:10 033 1 gusting 6 3.3
2017-Dec-17 00:00 041 1 gusting 5 2.8
2017-Dec-16 23:50 030 1 gusting 7 2.8
2017-Dec-16 23:40 021 3 gusting 6 2.8
2017-Dec-16 23:30 032 1 gusting 6 3.3
2017-Dec-16 23:20 040 2 gusting 8 3.3
2017-Dec-16 23:10 037 3 gusting 8 3.3
2017-Dec-16 23:00 037 1 gusting 5 3.3
2017-Dec-16 22:50 046 3 gusting 6 3.9
2017-Dec-16 22:40 027 2 gusting 6 3.9
2017-Dec-16 22:30 032 1 gusting 4 3.9
2017-Dec-16 22:20 032 1 gusting 6 3.9
2017-Dec-16 22:10 032 2 gusting 6 3.9
2017-Dec-16 22:00 031 2 gusting 7 4.4
2017-Dec-16 21:50 032 3 gusting 10 4.4
2017-Dec-16 21:40 033 1 gusting 6 4.4
2017-Dec-16 21:30 045 3 gusting 6 4.4
2017-Dec-16 21:20 039 3 gusting 8 5.0
2017-Dec-16 21:10 037 5 gusting 10 5.0
2017-Dec-16 21:00 043 4 gusting 9 5.0
2017-Dec-16 20:50 037 4 gusting 10 5.0
2017-Dec-16 20:40 033 4 gusting 11 5.0
2017-Dec-16 20:30 025 3 gusting 10 5.6
2017-Dec-16 20:20 026 3 gusting 8 5.6
2017-Dec-16 20:10 031 5 gusting 11 5.6
2017-Dec-16 20:00 023 3 gusting 7 5.6
2017-Dec-16 19:50 027 3 gusting 6 5.6
2017-Dec-16 19:40 023 4 gusting 12 5.6
2017-Dec-16 19:30 030 2 gusting 7 5.6
2017-Dec-16 19:20 029 2 gusting 6 5.6
2017-Dec-16 19:10 032 3 gusting 8 5.6
2017-Dec-16 19:00 033 2 gusting 6 5.6
2017-Dec-16 18:50 031 2 gusting 8 5.6
2017-Dec-16 18:40 027 3 gusting 7 5.6
2017-Dec-16 18:30 030 3 gusting 7 5.6
2017-Dec-16 18:20 033 3 gusting 6 5.6
2017-Dec-16 18:10 028 3 gusting 6 5.6
2017-Dec-16 18:00 022 3 gusting 8 6.1
2017-Dec-16 17:50 024 3 gusting 9 6.1
2017-Dec-16 17:40 020 2 gusting 6 6.1
2017-Dec-16 17:30 034 1 gusting 6 6.1
2017-Dec-16 17:20 043 0 gusting 5 6.7
2017-Dec-16 17:10 055 0 gusting 5 6.7
2017-Dec-16 17:00 047 3 gusting 10 7.2
2017-Dec-16 16:50 032 5 gusting 12 7.2
2017-Dec-16 16:40 027 3 gusting 8 7.8
2017-Dec-16 16:30 029 4 gusting 10 8.3
2017-Dec-16 16:20 031 5 gusting 11 8.3
2017-Dec-16 16:10 036 4 gusting 10 8.3
2017-Dec-16 16:00 030 6 gusting 13 8.9
2017-Dec-16 15:50 025 4 gusting 11 8.9
2017-Dec-16 15:40 032 5 gusting 12 8.9
2017-Dec-16 15:30 036 6 gusting 13 8.9
2017-Dec-16 15:20 022 4 gusting 13 9.4
2017-Dec-16 15:10 033 5 gusting 12 9.4
2017-Dec-16 15:00 034 6 gusting 11 9.4
2017-Dec-16 14:50 043 3 gusting 11 9.4
2017-Dec-16 14:40 031 5 gusting 11 9.4
2017-Dec-16 14:30 038 6 gusting 12 8.9
2017-Dec-16 14:20 040 4 gusting 10 9.4
2017-Dec-16 14:10 039 5 gusting 12 9.4
2017-Dec-16 14:00 033 5 gusting 11 9.4
2017-Dec-16 13:50 037 4 gusting 10 9.4
2017-Dec-16 13:40 036 5 gusting 13 9.4
2017-Dec-16 13:30 019 4 gusting 13 9.4
2017-Dec-16 13:20 035 5 gusting 11 9.4
2017-Dec-16 13:10 032 4 gusting 10 9.4
2017-Dec-16 13:00 028 4 gusting 10 9.4
2017-Dec-16 12:50 031 3 gusting 10 8.9
2017-Dec-16 12:40 029 3 gusting 7 8.9
2017-Dec-16 12:30 036 4 gusting 13 8.9
2017-Dec-16 12:20 046 3 gusting 9 8.3
2017-Dec-16 12:10 034 3 gusting 9 8.3
2017-Dec-16 12:00 028 4 gusting 8 7.8
2017-Dec-16 11:50 049 4 gusting 12 7.8
2017-Dec-16 11:40 051 4 gusting 9 7.8
2017-Dec-16 11:30 028 3 gusting 10 7.8
2017-Dec-16 11:20 021 4 gusting 9 7.2
2017-Dec-16 11:10 018 2 gusting 7 7.2
2017-Dec-16 11:00 036 4 gusting 9 6.7
2017-Dec-16 10:50 019 2 gusting 6 6.7
2017-Dec-16 10:40 029 2 gusting 6 6.1
2017-Dec-16 10:30 057 2 gusting 6 5.6
2017-Dec-16 10:20 083 1 gusting 4 5.0
2017-Dec-16 10:10 102 0 gusting 3 5.0
2017-Dec-16 10:00 065 1 gusting 3 4.4
2017-Dec-16 09:50 089 3.9
2017-Dec-16 09:40 165 1 gusting 5 2.8
2017-Dec-16 09:30 234 0 gusting 2 2.8
2017-Dec-16 09:20 167 2.2
2017-Dec-16 09:10 1.7
2017-Dec-16 09:00 1.7
2017-Dec-16 08:50 1.1
2017-Dec-16 08:40 222 1.1
2017-Dec-16 08:30 233 1 gusting 4 1.7
2017-Dec-16 08:20 099 1.7
2017-Dec-16 08:10 043 1.7
2017-Dec-16 08:00 043 1.7
2017-Dec-16 07:50 063 1.7
2017-Dec-16 07:40 051 2.2
2017-Dec-16 07:30 053 1 gusting 4 2.2
2017-Dec-16 07:20 102 1 gusting 5 2.8
2017-Dec-16 07:10 043 2 gusting 6 2.2
2017-Dec-16 07:00 039 2 gusting 7 1.7
2017-Dec-16 06:50 060 4 gusting 8 2.2
2017-Dec-16 06:40 040 2 gusting 5 1.7
2017-Dec-16 06:30 034 0 gusting 3 0.6
2017-Dec-16 06:20 0.6
2017-Dec-16 06:10 234 1.1
2017-Dec-16 06:00 212 0 gusting 2 1.7
2017-Dec-16 05:50 218 2.2
2017-Dec-16 05:40 016 2.8
2017-Dec-16 05:30 049 2.8
2017-Dec-16 05:20 053 0 gusting 3 2.2
2017-Dec-16 05:10 033 0 gusting 5 2.2
2017-Dec-16 05:00 052 0 gusting 3 2.2